X  Κλείσε Στοιχεία αεροπορικών μετεωρολογικών δεδομένων METAR        LYNI Nis Airport
θερμοκρασία
25°C θερμοκρασία
20°C Σημείο δρόσου
74% Υγρασία



Ανεμος
9 MPH
15 KM/H
4 M/S
8 KTS



320°
VD
Τρέχουσες συνθήκες

Mostly Sunny Κυρίως αίθριος
πίεση 1014 (hPa) - 29.94 (inHg)
Ορατότητα 6 (μίλι) - 10 (km)
Aεροδρόμιο
Κωδικός αεροδρομίου LYNI

Τοποθεσία: Nis Airport
Απόσταση: 63 (mi)

Metar:
METAR LYNI 230600Z 32008KT 290V350 CAVOK 25/20 Q1015 NOSIG

ώρα: 23-07-2024 08:00 CEST